sensor_id;sensor_type;location;lat;lon;timestamp;temperature;humidity
23371;DHT22;11858;51.056;3.712;2023-06-22T00:00:54;21.00;99.90
23371;DHT22;11858;51.056;3.712;2023-06-22T00:03:22;20.90;99.90
23371;DHT22;11858;51.056;3.712;2023-06-22T00:05:48;20.90;99.90
23371;DHT22;11858;51.056;3.712;2023-06-22T00:08:14;20.90;99.90
23371;DHT22;11858;51.056;3.712;2023-06-22T00:10:40;20.80;99.90
23371;DHT22;11858;51.056;3.712;2023-06-22T00:13:08;20.90;99.90
23371;DHT22;11858;51.056;3.712;2023-06-22T00:15:34;20.90;99.90
23371;DHT22;11858;51.056;3.712;2023-06-22T00:18:00;21.00;99.90
23371;DHT22;11858;51.056;3.712;2023-06-22T00:20:26;20.90;99.90
23371;DHT22;11858;51.056;3.712;2023-06-22T00:22:54;20.80;99.90
23371;DHT22;11858;51.056;3.712;2023-06-22T00:25:19;20.80;99.90
23371;DHT22;11858;51.056;3.712;2023-06-22T00:27:45;20.70;99.90
23371;DHT22;11858;51.056;3.712;2023-06-22T00:30:11;20.70;99.90
23371;DHT22;11858;51.056;3.712;2023-06-22T00:32:37;20.60;99.90
23371;DHT22;11858;51.056;3.712;2023-06-22T00:35:03;20.50;99.90
23371;DHT22;11858;51.056;3.712;2023-06-22T00:37:28;20.50;99.90
23371;DHT22;11858;51.056;3.712;2023-06-22T00:39:55;20.50;99.90
23371;DHT22;11858;51.056;3.712;2023-06-22T00:42:22;20.50;99.90
23371;DHT22;11858;51.056;3.712;2023-06-22T00:44:47;20.50;99.90
23371;DHT22;11858;51.056;3.712;2023-06-22T00:47:16;20.40;99.90
23371;DHT22;11858;51.056;3.712;2023-06-22T00:49:42;20.50;99.90
23371;DHT22;11858;51.056;3.712;2023-06-22T00:52:09;20.40;99.90
23371;DHT22;11858;51.056;3.712;2023-06-22T00:54:42;20.40;99.90
23371;DHT22;11858;51.056;3.712;2023-06-22T00:57:11;20.40;99.90
23371;DHT22;11858;51.056;3.712;2023-06-22T00:59:37;20.30;99.90
23371;DHT22;11858;51.056;3.712;2023-06-22T01:02:05;20.20;99.90
23371;DHT22;11858;51.056;3.712;2023-06-22T01:04:37;20.30;99.90
23371;DHT22;11858;51.056;3.712;2023-06-22T01:09:49;20.20;99.90
23371;DHT22;11858;51.056;3.712;2023-06-22T01:12:18;20.20;99.90
23371;DHT22;11858;51.056;3.712;2023-06-22T01:14:55;20.20;99.90
23371;DHT22;11858;51.056;3.712;2023-06-22T01:17:23;20.10;99.90
23371;DHT22;11858;51.056;3.712;2023-06-22T01:19:52;20.00;99.90
23371;DHT22;11858;51.056;3.712;2023-06-22T01:22:24;20.00;99.90
23371;DHT22;11858;51.056;3.712;2023-06-22T01:30:20;20.00;99.90
23371;DHT22;11858;51.056;3.712;2023-06-22T01:32:48;19.90;99.90
23371;DHT22;11858;51.056;3.712;2023-06-22T01:35:15;19.90;99.90
23371;DHT22;11858;51.056;3.712;2023-06-22T01:37:41;19.90;99.90
23371;DHT22;11858;51.056;3.712;2023-06-22T01:40:08;19.90;99.90
23371;DHT22;11858;51.056;3.712;2023-06-22T01:42:35;19.80;99.90
23371;DHT22;11858;51.056;3.712;2023-06-22T01:45:02;19.80;99.90
23371;DHT22;11858;51.056;3.712;2023-06-22T01:47:28;20.00;99.90
23371;DHT22;11858;51.056;3.712;2023-06-22T01:49:54;19.90;99.90
23371;DHT22;11858;51.056;3.712;2023-06-22T01:52:20;19.80;99.90
23371;DHT22;11858;51.056;3.712;2023-06-22T01:54:46;19.80;99.90
23371;DHT22;11858;51.056;3.712;2023-06-22T01:57:13;19.90;99.90
23371;DHT22;11858;51.056;3.712;2023-06-22T02:02:31;19.70;99.90
23371;DHT22;11858;51.056;3.712;2023-06-22T02:05:09;19.60;99.90
23371;DHT22;11858;51.056;3.712;2023-06-22T02:07:52;19.60;99.90
23371;DHT22;11858;51.056;3.712;2023-06-22T02:10:20;19.70;99.90
23371;DHT22;11858;51.056;3.712;2023-06-22T02:12:48;19.70;99.90
23371;DHT22;11858;51.056;3.712;2023-06-22T02:15:14;19.70;99.90
23371;DHT22;11858;51.056;3.712;2023-06-22T02:17:40;19.50;99.90
23371;DHT22;11858;51.056;3.712;2023-06-22T02:20:13;19.50;99.90
23371;DHT22;11858;51.056;3.712;2023-06-22T02:22:38;19.50;99.90
23371;DHT22;11858;51.056;3.712;2023-06-22T02:25:04;19.40;99.90
23371;DHT22;11858;51.056;3.712;2023-06-22T02:27:30;19.40;99.90
23371;DHT22;11858;51.056;3.712;2023-06-22T02:29:56;19.30;99.90
23371;DHT22;11858;51.056;3.712;2023-06-22T02:32:22;19.30;99.90
23371;DHT22;11858;51.056;3.712;2023-06-22T02:34:47;19.20;99.90
23371;DHT22;11858;51.056;3.712;2023-06-22T02:37:14;19.30;99.90
23371;DHT22;11858;51.056;3.712;2023-06-22T02:39:42;19.30;99.90
23371;DHT22;11858;51.056;3.712;2023-06-22T02:42:08;19.30;99.90
23371;DHT22;11858;51.056;3.712;2023-06-22T02:44:36;19.20;99.90
23371;DHT22;11858;51.056;3.712;2023-06-22T02:47:02;19.10;99.90
23371;DHT22;11858;51.056;3.712;2023-06-22T02:49:27;19.10;99.90
23371;DHT22;11858;51.056;3.712;2023-06-22T02:51:53;19.10;99.90
23371;DHT22;11858;51.056;3.712;2023-06-22T02:54:19;19.10;99.90
23371;DHT22;11858;51.056;3.712;2023-06-22T02:56:44;19.00;99.90
23371;DHT22;11858;51.056;3.712;2023-06-22T02:59:10;18.90;99.90
23371;DHT22;11858;51.056;3.712;2023-06-22T03:01:37;18.90;99.90
23371;DHT22;11858;51.056;3.712;2023-06-22T03:04:06;18.80;99.90
23371;DHT22;11858;51.056;3.712;2023-06-22T03:06:32;18.80;99.90
23371;DHT22;11858;51.056;3.712;2023-06-22T03:09:05;18.80;99.90
23371;DHT22;11858;51.056;3.712;2023-06-22T03:11:31;18.70;99.90
23371;DHT22;11858;51.056;3.712;2023-06-22T03:13:57;18.70;99.90
23371;DHT22;11858;51.056;3.712;2023-06-22T03:16:23;18.60;99.90
23371;DHT22;11858;51.056;3.712;2023-06-22T03:18:48;18.60;99.90
23371;DHT22;11858;51.056;3.712;2023-06-22T03:21:14;18.60;99.90
23371;DHT22;11858;51.056;3.712;2023-06-22T03:23:41;18.60;99.90
23371;DHT22;11858;51.056;3.712;2023-06-22T03:26:08;18.60;99.90
23371;DHT22;11858;51.056;3.712;2023-06-22T03:28:33;18.60;99.90
23371;DHT22;11858;51.056;3.712;2023-06-22T03:30:59;18.60;99.90
23371;DHT22;11858;51.056;3.712;2023-06-22T03:33:25;18.50;99.90
23371;DHT22;11858;51.056;3.712;2023-06-22T03:35:50;18.50;99.90
23371;DHT22;11858;51.056;3.712;2023-06-22T03:38:17;18.50;99.90
23371;DHT22;11858;51.056;3.712;2023-06-22T03:40:43;18.40;99.90
23371;DHT22;11858;51.056;3.712;2023-06-22T03:43:08;18.40;99.90
23371;DHT22;11858;51.056;3.712;2023-06-22T03:45:34;18.40;99.90
23371;DHT22;11858;51.056;3.712;2023-06-22T03:48:00;18.40;99.90
23371;DHT22;11858;51.056;3.712;2023-06-22T03:50:26;18.30;99.90
23371;DHT22;11858;51.056;3.712;2023-06-22T03:52:52;18.30;99.90
23371;DHT22;11858;51.056;3.712;2023-06-22T03:55:19;18.30;99.90
23371;DHT22;11858;51.056;3.712;2023-06-22T03:57:45;18.30;99.90
23371;DHT22;11858;51.056;3.712;2023-06-22T04:00:11;18.20;99.90
23371;DHT22;11858;51.056;3.712;2023-06-22T04:02:38;18.30;99.90
23371;DHT22;11858;51.056;3.712;2023-06-22T04:05:04;18.30;99.90
23371;DHT22;11858;51.056;3.712;2023-06-22T04:07:30;18.40;99.90
23371;DHT22;11858;51.056;3.712;2023-06-22T04:09:56;18.30;99.90
23371;DHT22;11858;51.056;3.712;2023-06-22T04:12:21;18.40;99.90
23371;DHT22;11858;51.056;3.712;2023-06-22T04:14:47;18.40;99.90
23371;DHT22;11858;51.056;3.712;2023-06-22T04:17:12;18.40;99.90
23371;DHT22;11858;51.056;3.712;2023-06-22T04:19:40;18.50;99.90
23371;DHT22;11858;51.056;3.712;2023-06-22T04:22:06;18.60;99.90
23371;DHT22;11858;51.056;3.712;2023-06-22T04:24:33;18.60;99.90
23371;DHT22;11858;51.056;3.712;2023-06-22T04:26:59;18.60;99.90
23371;DHT22;11858;51.056;3.712;2023-06-22T04:29:29;18.70;99.90
23371;DHT22;11858;51.056;3.712;2023-06-22T04:31:58;18.70;99.90
23371;DHT22;11858;51.056;3.712;2023-06-22T04:34:28;18.70;99.90
23371;DHT22;11858;51.056;3.712;2023-06-22T04:36:54;18.80;99.90
23371;DHT22;11858;51.056;3.712;2023-06-22T04:39:20;18.80;99.90
23371;DHT22;11858;51.056;3.712;2023-06-22T04:41:45;18.80;99.90
23371;DHT22;11858;51.056;3.712;2023-06-22T04:44:12;18.90;99.90
23371;DHT22;11858;51.056;3.712;2023-06-22T04:46:38;18.80;99.90
23371;DHT22;11858;51.056;3.712;2023-06-22T04:49:08;18.90;99.90
23371;DHT22;11858;51.056;3.712;2023-06-22T04:51:39;19.00;99.90
23371;DHT22;11858;51.056;3.712;2023-06-22T04:54:05;19.10;99.90
23371;DHT22;11858;51.056;3.712;2023-06-22T04:56:31;19.10;99.90
23371;DHT22;11858;51.056;3.712;2023-06-22T04:58:57;19.10;99.90
23371;DHT22;11858;51.056;3.712;2023-06-22T05:01:23;19.30;99.90
23371;DHT22;11858;51.056;3.712;2023-06-22T05:03:49;19.40;99.90
23371;DHT22;11858;51.056;3.712;2023-06-22T05:06:15;19.50;99.90
23371;DHT22;11858;51.056;3.712;2023-06-22T05:08:41;19.60;99.90
23371;DHT22;11858;51.056;3.712;2023-06-22T05:11:06;19.80;99.90
23371;DHT22;11858;51.056;3.712;2023-06-22T05:13:32;19.90;99.90
23371;DHT22;11858;51.056;3.712;2023-06-22T05:15:58;19.90;99.90
23371;DHT22;11858;51.056;3.712;2023-06-22T05:18:36;20.10;99.90
23371;DHT22;11858;51.056;3.712;2023-06-22T05:21:02;20.20;99.90
23371;DHT22;11858;51.056;3.712;2023-06-22T05:23:28;20.40;99.90
23371;DHT22;11858;51.056;3.712;2023-06-22T05:25:54;20.60;99.90
23371;DHT22;11858;51.056;3.712;2023-06-22T05:28:22;20.80;99.90
23371;DHT22;11858;51.056;3.712;2023-06-22T05:30:48;20.90;99.90
23371;DHT22;11858;51.056;3.712;2023-06-22T05:33:14;21.00;99.90
23371;DHT22;11858;51.056;3.712;2023-06-22T05:35:39;21.20;99.90
23371;DHT22;11858;51.056;3.712;2023-06-22T05:38:05;21.30;99.90
23371;DHT22;11858;51.056;3.712;2023-06-22T05:40:31;21.50;99.90
23371;DHT22;11858;51.056;3.712;2023-06-22T05:42:56;21.60;99.90
23371;DHT22;11858;51.056;3.712;2023-06-22T05:45:22;21.80;99.90
23371;DHT22;11858;51.056;3.712;2023-06-22T05:47:47;21.90;99.90
23371;DHT22;11858;51.056;3.712;2023-06-22T05:50:13;21.80;99.90
23371;DHT22;11858;51.056;3.712;2023-06-22T05:52:39;21.90;99.90
23371;DHT22;11858;51.056;3.712;2023-06-22T05:55:05;22.00;99.90
23371;DHT22;11858;51.056;3.712;2023-06-22T05:57:30;22.00;99.90
23371;DHT22;11858;51.056;3.712;2023-06-22T05:59:56;22.10;99.90
23371;DHT22;11858;51.056;3.712;2023-06-22T06:02:21;22.10;99.90
23371;DHT22;11858;51.056;3.712;2023-06-22T06:04:47;22.20;99.90
23371;DHT22;11858;51.056;3.712;2023-06-22T06:07:13;22.30;99.90
23371;DHT22;11858;51.056;3.712;2023-06-22T06:09:38;22.40;99.90
23371;DHT22;11858;51.056;3.712;2023-06-22T06:12:04;22.50;99.90
23371;DHT22;11858;51.056;3.712;2023-06-22T06:14:30;22.50;99.90
23371;DHT22;11858;51.056;3.712;2023-06-22T06:16:55;22.50;99.90
23371;DHT22;11858;51.056;3.712;2023-06-22T06:19:21;22.70;99.90
23371;DHT22;11858;51.056;3.712;2023-06-22T06:21:46;22.80;99.90
23371;DHT22;11858;51.056;3.712;2023-06-22T06:24:12;22.90;99.90
23371;DHT22;11858;51.056;3.712;2023-06-22T06:26:38;23.10;99.90
23371;DHT22;11858;51.056;3.712;2023-06-22T06:29:04;23.10;99.90
23371;DHT22;11858;51.056;3.712;2023-06-22T06:31:30;23.20;99.90
23371;DHT22;11858;51.056;3.712;2023-06-22T06:33:56;23.30;99.90
23371;DHT22;11858;51.056;3.712;2023-06-22T06:36:21;23.30;99.90
23371;DHT22;11858;51.056;3.712;2023-06-22T06:38:47;23.40;99.90
23371;DHT22;11858;51.056;3.712;2023-06-22T06:41:14;23.40;99.90
23371;DHT22;11858;51.056;3.712;2023-06-22T06:43:40;23.40;99.90
23371;DHT22;11858;51.056;3.712;2023-06-22T06:46:07;23.50;99.90
23371;DHT22;11858;51.056;3.712;2023-06-22T06:48:33;23.60;99.90
23371;DHT22;11858;51.056;3.712;2023-06-22T06:51:00;23.70;99.90
23371;DHT22;11858;51.056;3.712;2023-06-22T06:53:26;23.80;99.90
23371;DHT22;11858;51.056;3.712;2023-06-22T06:55:52;23.90;99.90
23371;DHT22;11858;51.056;3.712;2023-06-22T06:58:18;23.90;99.90
23371;DHT22;11858;51.056;3.712;2023-06-22T07:00:43;24.00;99.90
23371;DHT22;11858;51.056;3.712;2023-06-22T07:03:09;24.10;99.90
23371;DHT22;11858;51.056;3.712;2023-06-22T07:05:35;24.00;99.90
23371;DHT22;11858;51.056;3.712;2023-06-22T07:08:01;24.00;99.90
23371;DHT22;11858;51.056;3.712;2023-06-22T07:10:27;24.00;99.90
23371;DHT22;11858;51.056;3.712;2023-06-22T07:12:53;24.10;99.90
23371;DHT22;11858;51.056;3.712;2023-06-22T07:15:19;24.10;99.90
23371;DHT22;11858;51.056;3.712;2023-06-22T07:17:44;24.20;99.90
23371;DHT22;11858;51.056;3.712;2023-06-22T07:20:11;24.30;99.90
23371;DHT22;11858;51.056;3.712;2023-06-22T07:22:40;24.40;99.90
23371;DHT22;11858;51.056;3.712;2023-06-22T07:25:06;24.50;99.90
23371;DHT22;11858;51.056;3.712;2023-06-22T07:27:39;24.40;99.90
23371;DHT22;11858;51.056;3.712;2023-06-22T07:30:09;24.50;99.90
23371;DHT22;11858;51.056;3.712;2023-06-22T07:32:35;24.50;99.90
23371;DHT22;11858;51.056;3.712;2023-06-22T07:35:00;24.50;99.90
23371;DHT22;11858;51.056;3.712;2023-06-22T07:37:27;24.80;99.90
23371;DHT22;11858;51.056;3.712;2023-06-22T07:39:53;24.90;99.90
23371;DHT22;11858;51.056;3.712;2023-06-22T07:42:24;25.00;99.90
23371;DHT22;11858;51.056;3.712;2023-06-22T07:44:50;25.20;99.90
23371;DHT22;11858;51.056;3.712;2023-06-22T07:47:16;25.30;99.90
23371;DHT22;11858;51.056;3.712;2023-06-22T07:49:45;25.20;99.90
23371;DHT22;11858;51.056;3.712;2023-06-22T07:52:10;25.40;99.90
23371;DHT22;11858;51.056;3.712;2023-06-22T07:54:36;25.40;99.90
23371;DHT22;11858;51.056;3.712;2023-06-22T07:57:02;25.50;99.90
23371;DHT22;11858;51.056;3.712;2023-06-22T07:59:28;25.60;99.90
23371;DHT22;11858;51.056;3.712;2023-06-22T08:01:54;25.60;99.90
23371;DHT22;11858;51.056;3.712;2023-06-22T08:04:20;25.70;99.90
23371;DHT22;11858;51.056;3.712;2023-06-22T08:06:46;25.60;99.90
23371;DHT22;11858;51.056;3.712;2023-06-22T08:09:11;25.70;99.90
23371;DHT22;11858;51.056;3.712;2023-06-22T08:11:37;25.60;99.90
23371;DHT22;11858;51.056;3.712;2023-06-22T08:14:03;25.70;99.90
23371;DHT22;11858;51.056;3.712;2023-06-22T08:16:28;25.60;99.90
23371;DHT22;11858;51.056;3.712;2023-06-22T08:18:54;25.60;99.90
23371;DHT22;11858;51.056;3.712;2023-06-22T08:21:20;25.60;99.90
23371;DHT22;11858;51.056;3.712;2023-06-22T08:23:46;25.60;99.90
23371;DHT22;11858;51.056;3.712;2023-06-22T08:26:11;25.60;99.90
23371;DHT22;11858;51.056;3.712;2023-06-22T08:28:37;25.50;99.90
23371;DHT22;11858;51.056;3.712;2023-06-22T08:31:02;25.60;99.90
23371;DHT22;11858;51.056;3.712;2023-06-22T08:33:29;25.50;99.90
23371;DHT22;11858;51.056;3.712;2023-06-22T08:35:56;25.40;99.90
23371;DHT22;11858;51.056;3.712;2023-06-22T08:38:22;25.40;99.90
23371;DHT22;11858;51.056;3.712;2023-06-22T08:40:47;25.30;99.90
23371;DHT22;11858;51.056;3.712;2023-06-22T08:43:14;25.30;99.90
23371;DHT22;11858;51.056;3.712;2023-06-22T08:45:39;25.30;99.90
23371;DHT22;11858;51.056;3.712;2023-06-22T08:48:05;25.30;99.90
23371;DHT22;11858;51.056;3.712;2023-06-22T08:50:31;25.30;99.90
23371;DHT22;11858;51.056;3.712;2023-06-22T08:52:56;25.30;99.90
23371;DHT22;11858;51.056;3.712;2023-06-22T08:55:22;25.30;99.90
23371;DHT22;11858;51.056;3.712;2023-06-22T08:57:48;25.20;99.90
23371;DHT22;11858;51.056;3.712;2023-06-22T09:00:14;25.10;99.90
23371;DHT22;11858;51.056;3.712;2023-06-22T09:02:44;24.90;99.90
23371;DHT22;11858;51.056;3.712;2023-06-22T09:05:10;25.00;99.90
23371;DHT22;11858;51.056;3.712;2023-06-22T09:07:36;24.90;99.90
23371;DHT22;11858;51.056;3.712;2023-06-22T09:10:02;24.80;99.90
23371;DHT22;11858;51.056;3.712;2023-06-22T09:12:30;24.80;99.90
23371;DHT22;11858;51.056;3.712;2023-06-22T09:14:56;24.80;99.90
23371;DHT22;11858;51.056;3.712;2023-06-22T09:17:22;24.70;99.90
23371;DHT22;11858;51.056;3.712;2023-06-22T09:19:48;24.70;99.90
23371;DHT22;11858;51.056;3.712;2023-06-22T09:22:14;24.60;99.90
23371;DHT22;11858;51.056;3.712;2023-06-22T09:24:40;24.50;99.90
23371;DHT22;11858;51.056;3.712;2023-06-22T09:27:06;24.50;99.90
23371;DHT22;11858;51.056;3.712;2023-06-22T09:29:31;24.40;99.90
23371;DHT22;11858;51.056;3.712;2023-06-22T09:31:59;24.30;99.90
23371;DHT22;11858;51.056;3.712;2023-06-22T09:34:25;24.20;99.90
23371;DHT22;11858;51.056;3.712;2023-06-22T09:36:51;24.20;99.90
23371;DHT22;11858;51.056;3.712;2023-06-22T09:39:18;24.10;99.90
23371;DHT22;11858;51.056;3.712;2023-06-22T09:41:44;24.00;99.90
23371;DHT22;11858;51.056;3.712;2023-06-22T09:44:09;24.00;99.90
23371;DHT22;11858;51.056;3.712;2023-06-22T09:46:35;24.00;99.90
23371;DHT22;11858;51.056;3.712;2023-06-22T09:49:00;24.00;99.90
23371;DHT22;11858;51.056;3.712;2023-06-22T09:51:26;23.90;99.90
23371;DHT22;11858;51.056;3.712;2023-06-22T09:53:52;23.80;99.90
23371;DHT22;11858;51.056;3.712;2023-06-22T09:56:19;23.70;99.90
23371;DHT22;11858;51.056;3.712;2023-06-22T09:58:46;23.40;99.90
23371;DHT22;11858;51.056;3.712;2023-06-22T10:01:12;23.30;99.90
23371;DHT22;11858;51.056;3.712;2023-06-22T10:03:40;23.20;99.90
23371;DHT22;11858;51.056;3.712;2023-06-22T10:06:06;23.10;99.90
23371;DHT22;11858;51.056;3.712;2023-06-22T10:08:32;23.00;99.90
23371;DHT22;11858;51.056;3.712;2023-06-22T10:10:58;22.90;99.90
23371;DHT22;11858;51.056;3.712;2023-06-22T10:13:24;22.90;99.90
23371;DHT22;11858;51.056;3.712;2023-06-22T10:15:49;23.00;99.90
23371;DHT22;11858;51.056;3.712;2023-06-22T10:18:18;22.90;99.90
23371;DHT22;11858;51.056;3.712;2023-06-22T10:20:46;22.90;99.90
23371;DHT22;11858;51.056;3.712;2023-06-22T10:23:12;22.80;99.90
23371;DHT22;11858;51.056;3.712;2023-06-22T10:25:38;22.80;99.90
23371;DHT22;11858;51.056;3.712;2023-06-22T10:28:03;22.90;99.90
23371;DHT22;11858;51.056;3.712;2023-06-22T10:30:29;23.00;99.90
23371;DHT22;11858;51.056;3.712;2023-06-22T10:32:54;23.10;99.90
23371;DHT22;11858;51.056;3.712;2023-06-22T10:35:20;22.90;99.90
23371;DHT22;11858;51.056;3.712;2023-06-22T10:37:46;22.70;99.90
23371;DHT22;11858;51.056;3.712;2023-06-22T10:40:13;22.70;99.90
23371;DHT22;11858;51.056;3.712;2023-06-22T10:42:39;22.60;99.90
23371;DHT22;11858;51.056;3.712;2023-06-22T10:45:05;22.60;99.90
23371;DHT22;11858;51.056;3.712;2023-06-22T10:47:31;22.70;99.90
23371;DHT22;11858;51.056;3.712;2023-06-22T10:49:56;22.80;99.90
23371;DHT22;11858;51.056;3.712;2023-06-22T10:52:22;22.80;99.90
23371;DHT22;11858;51.056;3.712;2023-06-22T10:54:48;22.90;99.90
23371;DHT22;11858;51.056;3.712;2023-06-22T10:57:13;23.00;99.90
23371;DHT22;11858;51.056;3.712;2023-06-22T10:59:39;23.00;99.90
23371;DHT22;11858;51.056;3.712;2023-06-22T11:02:05;23.00;99.90
23371;DHT22;11858;51.056;3.712;2023-06-22T11:04:31;23.10;99.90
23371;DHT22;11858;51.056;3.712;2023-06-22T11:06:56;23.00;99.90
23371;DHT22;11858;51.056;3.712;2023-06-22T11:09:22;23.10;99.90
23371;DHT22;11858;51.056;3.712;2023-06-22T11:11:49;23.20;99.90
23371;DHT22;11858;51.056;3.712;2023-06-22T11:14:15;23.20;99.90
23371;DHT22;11858;51.056;3.712;2023-06-22T11:16:41;23.30;99.90
23371;DHT22;11858;51.056;3.712;2023-06-22T11:19:06;23.30;99.90
23371;DHT22;11858;51.056;3.712;2023-06-22T11:21:32;23.40;99.90
23371;DHT22;11858;51.056;3.712;2023-06-22T11:24:01;23.60;99.90
23371;DHT22;11858;51.056;3.712;2023-06-22T11:26:27;23.60;99.90
23371;DHT22;11858;51.056;3.712;2023-06-22T11:28:53;23.10;99.90
23371;DHT22;11858;51.056;3.712;2023-06-22T11:31:19;22.80;99.90
23371;DHT22;11858;51.056;3.712;2023-06-22T11:33:44;22.60;99.90
23371;DHT22;11858;51.056;3.712;2023-06-22T11:36:11;22.50;99.90
23371;DHT22;11858;51.056;3.712;2023-06-22T11:38:37;22.60;99.90
23371;DHT22;11858;51.056;3.712;2023-06-22T11:41:05;22.50;99.90
23371;DHT22;11858;51.056;3.712;2023-06-22T11:43:31;22.40;99.90
23371;DHT22;11858;51.056;3.712;2023-06-22T11:45:57;22.30;99.90
23371;DHT22;11858;51.056;3.712;2023-06-22T11:48:24;22.30;99.90
23371;DHT22;11858;51.056;3.712;2023-06-22T11:50:50;22.20;99.90
23371;DHT22;11858;51.056;3.712;2023-06-22T11:53:15;22.20;99.90
23371;DHT22;11858;51.056;3.712;2023-06-22T11:55:43;22.10;99.90
23371;DHT22;11858;51.056;3.712;2023-06-22T11:58:08;22.00;99.90
23371;DHT22;11858;51.056;3.712;2023-06-22T12:00:34;22.00;99.90
23371;DHT22;11858;51.056;3.712;2023-06-22T12:03:00;21.90;99.90
23371;DHT22;11858;51.056;3.712;2023-06-22T12:05:25;21.90;99.90
23371;DHT22;11858;51.056;3.712;2023-06-22T12:07:53;21.90;99.90
23371;DHT22;11858;51.056;3.712;2023-06-22T12:10:20;22.00;99.90
23371;DHT22;11858;51.056;3.712;2023-06-22T12:12:46;22.10;99.90
23371;DHT22;11858;51.056;3.712;2023-06-22T12:15:11;22.10;99.90
23371;DHT22;11858;51.056;3.712;2023-06-22T12:17:37;22.10;99.90
23371;DHT22;11858;51.056;3.712;2023-06-22T12:20:03;22.30;99.90
23371;DHT22;11858;51.056;3.712;2023-06-22T12:22:34;22.40;99.90
23371;DHT22;11858;51.056;3.712;2023-06-22T12:25:00;22.50;99.90
23371;DHT22;11858;51.056;3.712;2023-06-22T12:27:27;22.50;99.90
23371;DHT22;11858;51.056;3.712;2023-06-22T12:29:52;22.60;99.90
23371;DHT22;11858;51.056;3.712;2023-06-22T12:32:18;22.70;99.90
23371;DHT22;11858;51.056;3.712;2023-06-22T12:34:44;22.60;99.90
23371;DHT22;11858;51.056;3.712;2023-06-22T12:37:10;22.60;99.90
23371;DHT22;11858;51.056;3.712;2023-06-22T12:39:36;22.40;99.90
23371;DHT22;11858;51.056;3.712;2023-06-22T12:42:02;22.30;99.90
23371;DHT22;11858;51.056;3.712;2023-06-22T12:44:28;22.40;99.90
23371;DHT22;11858;51.056;3.712;2023-06-22T12:46:53;22.60;99.90
23371;DHT22;11858;51.056;3.712;2023-06-22T12:49:19;22.60;99.90
23371;DHT22;11858;51.056;3.712;2023-06-22T12:51:45;22.60;99.90
23371;DHT22;11858;51.056;3.712;2023-06-22T12:54:11;22.40;99.90
23371;DHT22;11858;51.056;3.712;2023-06-22T12:56:40;22.50;99.90
23371;DHT22;11858;51.056;3.712;2023-06-22T12:59:05;22.50;99.90
23371;DHT22;11858;51.056;3.712;2023-06-22T13:01:32;22.40;99.90
23371;DHT22;11858;51.056;3.712;2023-06-22T13:03:58;22.40;99.90
23371;DHT22;11858;51.056;3.712;2023-06-22T13:06:23;22.60;99.90
23371;DHT22;11858;51.056;3.712;2023-06-22T13:08:49;22.50;99.90
23371;DHT22;11858;51.056;3.712;2023-06-22T13:11:15;22.60;99.90
23371;DHT22;11858;51.056;3.712;2023-06-22T13:13:41;22.70;99.90
23371;DHT22;11858;51.056;3.712;2023-06-22T13:16:07;22.70;99.90
23371;DHT22;11858;51.056;3.712;2023-06-22T13:18:33;22.80;99.90
23371;DHT22;11858;51.056;3.712;2023-06-22T13:21:01;22.80;99.90
23371;DHT22;11858;51.056;3.712;2023-06-22T13:23:27;22.90;99.90
23371;DHT22;11858;51.056;3.712;2023-06-22T13:25:52;23.10;99.90
23371;DHT22;11858;51.056;3.712;2023-06-22T13:28:18;23.40;99.90
23371;DHT22;11858;51.056;3.712;2023-06-22T13:30:44;23.50;99.90
23371;DHT22;11858;51.056;3.712;2023-06-22T13:33:13;23.60;99.90
23371;DHT22;11858;51.056;3.712;2023-06-22T13:35:38;23.70;99.90
23371;DHT22;11858;51.056;3.712;2023-06-22T13:38:04;23.80;99.90
23371;DHT22;11858;51.056;3.712;2023-06-22T13:40:30;24.20;99.90
23371;DHT22;11858;51.056;3.712;2023-06-22T13:42:56;24.60;99.90
23371;DHT22;11858;51.056;3.712;2023-06-22T13:45:22;24.80;99.90
23371;DHT22;11858;51.056;3.712;2023-06-22T13:47:48;24.80;99.90
23371;DHT22;11858;51.056;3.712;2023-06-22T13:50:13;24.60;99.90
23371;DHT22;11858;51.056;3.712;2023-06-22T13:52:39;24.70;99.90
23371;DHT22;11858;51.056;3.712;2023-06-22T13:55:05;24.80;99.90
23371;DHT22;11858;51.056;3.712;2023-06-22T13:57:33;24.90;99.90
23371;DHT22;11858;51.056;3.712;2023-06-22T13:59:59;25.20;99.90
23371;DHT22;11858;51.056;3.712;2023-06-22T14:02:26;25.60;99.90
23371;DHT22;11858;51.056;3.712;2023-06-22T14:04:52;25.90;99.90
23371;DHT22;11858;51.056;3.712;2023-06-22T14:07:17;25.60;99.90
23371;DHT22;11858;51.056;3.712;2023-06-22T14:09:45;25.60;99.90
23371;DHT22;11858;51.056;3.712;2023-06-22T14:12:11;25.60;99.90
23371;DHT22;11858;51.056;3.712;2023-06-22T14:14:36;25.40;99.90
23371;DHT22;11858;51.056;3.712;2023-06-22T14:17:03;25.30;99.90
23371;DHT22;11858;51.056;3.712;2023-06-22T14:19:29;25.20;99.90
23371;DHT22;11858;51.056;3.712;2023-06-22T14:21:55;25.40;99.90
23371;DHT22;11858;51.056;3.712;2023-06-22T14:24:22;25.50;99.90
23371;DHT22;11858;51.056;3.712;2023-06-22T14:26:48;25.10;99.90
23371;DHT22;11858;51.056;3.712;2023-06-22T14:29:14;24.90;99.90
23371;DHT22;11858;51.056;3.712;2023-06-22T14:31:39;24.90;99.90
23371;DHT22;11858;51.056;3.712;2023-06-22T14:34:05;24.80;99.90
23371;DHT22;11858;51.056;3.712;2023-06-22T14:36:31;25.30;99.90
23371;DHT22;11858;51.056;3.712;2023-06-22T14:38:57;25.80;99.90
23371;DHT22;11858;51.056;3.712;2023-06-22T14:41:22;26.40;99.90
23371;DHT22;11858;51.056;3.712;2023-06-22T14:43:49;26.90;99.90
23371;DHT22;11858;51.056;3.712;2023-06-22T14:46:17;27.20;99.90
23371;DHT22;11858;51.056;3.712;2023-06-22T14:48:43;27.10;99.90
23371;DHT22;11858;51.056;3.712;2023-06-22T14:51:09;26.80;99.90
23371;DHT22;11858;51.056;3.712;2023-06-22T14:53:36;26.90;99.90
23371;DHT22;11858;51.056;3.712;2023-06-22T14:56:01;26.90;99.90
23371;DHT22;11858;51.056;3.712;2023-06-22T14:58:31;26.60;99.90
23371;DHT22;11858;51.056;3.712;2023-06-22T15:01:04;26.60;99.90
23371;DHT22;11858;51.056;3.712;2023-06-22T15:03:31;26.60;99.90
23371;DHT22;11858;51.056;3.712;2023-06-22T15:05:57;26.60;99.90
23371;DHT22;11858;51.056;3.712;2023-06-22T15:08:24;26.30;99.90
23371;DHT22;11858;51.056;3.712;2023-06-22T15:10:50;26.20;99.90
23371;DHT22;11858;51.056;3.712;2023-06-22T15:13:16;26.60;99.90
23371;DHT22;11858;51.056;3.712;2023-06-22T15:15:43;26.60;99.90
23371;DHT22;11858;51.056;3.712;2023-06-22T15:18:08;26.70;99.90
23371;DHT22;11858;51.056;3.712;2023-06-22T15:20:34;26.60;99.90
23371;DHT22;11858;51.056;3.712;2023-06-22T15:23:00;26.40;99.90
23371;DHT22;11858;51.056;3.712;2023-06-22T15:25:25;26.20;99.90
23371;DHT22;11858;51.056;3.712;2023-06-22T15:27:51;26.40;99.90
23371;DHT22;11858;51.056;3.712;2023-06-22T15:30:17;26.80;99.90
23371;DHT22;11858;51.056;3.712;2023-06-22T15:32:43;26.90;99.90
23371;DHT22;11858;51.056;3.712;2023-06-22T15:35:10;27.00;99.90